createdAt,value
2022-09-15T00:01:44.236Z,14.14
2022-09-15T00:03:47.403Z,14.16
2022-09-15T00:05:50.708Z,14.14
2022-09-15T00:07:53.603Z,14.13
2022-09-15T00:09:58.009Z,14.10
2022-09-15T00:12:00.930Z,14.03
2022-09-15T00:14:05.908Z,14.03
2022-09-15T00:16:15.839Z,14.04
2022-09-15T00:18:18.838Z,14.03
2022-09-15T00:20:22.768Z,14.00
2022-09-15T00:22:26.268Z,14.00
2022-09-15T00:24:29.206Z,13.96
2022-09-15T00:26:33.752Z,13.98
2022-09-15T00:28:37.057Z,13.97
2022-09-15T00:30:44.046Z,13.95
2022-09-15T00:32:46.975Z,13.95
2022-09-15T00:34:51.040Z,13.94
2022-09-15T00:36:53.917Z,13.94
2022-09-15T00:38:57.632Z,13.94
2022-09-15T00:41:01.960Z,13.92
2022-09-15T00:43:10.616Z,13.92
2022-09-15T00:45:17.301Z,13.93
2022-09-15T00:47:22.498Z,13.92
2022-09-15T00:49:27.124Z,13.88
2022-09-15T00:51:35.041Z,13.88
2022-09-15T00:53:38.236Z,13.85
2022-09-15T00:55:44.439Z,13.83
2022-09-15T00:57:52.263Z,13.83
2022-09-15T00:59:58.239Z,13.81
2022-09-15T01:02:04.898Z,13.79
2022-09-15T01:04:07.810Z,13.79
2022-09-15T01:06:17.158Z,13.76
2022-09-15T01:08:25.052Z,13.75
2022-09-15T01:10:29.247Z,13.69
2022-09-15T01:12:32.170Z,13.63
2022-09-15T01:14:35.297Z,13.67
2022-09-15T01:16:48.145Z,13.67
2022-09-15T01:18:56.415Z,13.65
2022-09-15T01:21:08.996Z,13.60
2022-09-15T01:23:36.425Z,13.59
2022-09-15T01:25:54.430Z,13.55
2022-09-15T01:28:20.064Z,13.54
2022-09-15T01:30:24.536Z,13.51
2022-09-15T01:32:47.906Z,13.50
2022-09-15T01:34:56.801Z,13.49
2022-09-15T01:37:03.524Z,13.42
2022-09-15T01:39:11.927Z,13.44
2022-09-15T01:41:17.969Z,13.47
2022-09-15T01:43:22.200Z,13.44
2022-09-15T01:45:30.593Z,13.44
2022-09-15T01:47:34.050Z,13.45
2022-09-15T01:49:40.082Z,13.46
2022-09-15T01:51:43.543Z,13.47
2022-09-15T01:53:47.249Z,13.46
2022-09-15T01:55:54.045Z,13.43
2022-09-15T01:57:56.972Z,13.42
2022-09-15T02:00:00.680Z,13.41
2022-09-15T02:02:06.679Z,13.40
2022-09-15T02:04:12.991Z,13.36
2022-09-15T02:06:21.938Z,13.34
2022-09-15T02:08:27.787Z,13.32
2022-09-15T02:10:35.176Z,13.31
2022-09-15T02:12:42.239Z,13.29
2022-09-15T02:14:49.229Z,13.27
2022-09-15T02:16:55.070Z,13.23
2022-09-15T02:19:08.816Z,13.24
2022-09-15T02:21:15.217Z,13.24
2022-09-15T02:23:19.941Z,13.16
2022-09-15T02:25:28.724Z,13.21
2022-09-15T02:27:37.476Z,13.19
2022-09-15T02:29:41.144Z,13.20
2022-09-15T02:31:45.441Z,13.20
2022-09-15T02:33:50.954Z,13.21
2022-09-15T02:35:55.321Z,13.26
2022-09-15T02:37:59.626Z,13.28
2022-09-15T02:40:03.190Z,13.26
2022-09-15T02:42:25.267Z,13.29
2022-09-15T02:44:30.565Z,13.28
2022-09-15T02:46:34.072Z,13.28
2022-09-15T02:48:37.191Z,13.30
2022-09-15T02:50:41.207Z,13.26
2022-09-15T02:52:45.590Z,13.26
2022-09-15T02:54:48.828Z,13.21
2022-09-15T02:56:54.391Z,13.24
2022-09-15T02:58:57.236Z,13.21
2022-09-15T03:01:02.819Z,13.25
2022-09-15T03:03:05.839Z,13.23
2022-09-15T03:05:10.142Z,13.24
2022-09-15T03:07:13.123Z,13.27
2022-09-15T03:09:17.401Z,13.28
2022-09-15T03:11:21.889Z,13.29
2022-09-15T03:13:24.783Z,13.26
2022-09-15T03:15:28.051Z,13.21
2022-09-15T03:17:35.236Z,13.23
2022-09-15T03:19:38.412Z,13.26
2022-09-15T03:21:41.354Z,13.24
2022-09-15T03:23:44.631Z,13.25
2022-09-15T03:25:48.967Z,13.27
2022-09-15T03:27:51.829Z,13.21
2022-09-15T03:29:54.797Z,13.19
2022-09-15T03:31:57.836Z,13.26
2022-09-15T03:34:00.760Z,13.27
2022-09-15T03:36:04.186Z,13.24
2022-09-15T03:38:07.130Z,13.23
2022-09-15T03:40:11.323Z,13.21
2022-09-15T03:42:15.642Z,13.27
2022-09-15T03:44:18.563Z,13.31
2022-09-15T03:46:22.189Z,13.31
2022-09-15T03:48:25.545Z,13.41
2022-09-15T03:50:29.158Z,13.40
2022-09-15T03:52:32.935Z,13.47
2022-09-15T03:54:36.084Z,13.43
2022-09-15T03:56:39.566Z,13.43
2022-09-15T03:58:43.844Z,13.48
2022-09-15T04:00:47.337Z,13.53
2022-09-15T04:02:50.615Z,13.49
2022-09-15T04:04:53.552Z,13.57
2022-09-15T04:06:56.420Z,13.54
2022-09-15T04:09:00.134Z,13.58
2022-09-15T04:11:05.687Z,13.62
2022-09-15T04:13:08.903Z,13.60
2022-09-15T04:15:13.161Z,13.61
2022-09-15T04:17:16.178Z,13.67
2022-09-15T04:19:19.087Z,13.62
2022-09-15T04:21:23.371Z,13.66
2022-09-15T04:23:26.411Z,13.69
2022-09-15T04:25:29.484Z,13.74
2022-09-15T04:27:34.399Z,13.74
2022-09-15T04:29:40.164Z,13.74
2022-09-15T04:31:44.744Z,13.66
2022-09-15T04:33:48.517Z,13.73
2022-09-15T04:35:51.494Z,13.76
2022-09-15T04:37:55.495Z,13.77
2022-09-15T04:39:58.425Z,13.77
2022-09-15T04:42:05.201Z,13.77
2022-09-15T04:44:08.133Z,13.82
2022-09-15T04:46:15.089Z,13.86
2022-09-15T04:48:19.518Z,13.85
2022-09-15T04:50:22.441Z,13.83
2022-09-15T04:52:25.398Z,13.83
2022-09-15T04:54:28.241Z,13.82
2022-09-15T04:56:31.195Z,13.90
2022-09-15T04:58:37.473Z,13.94
2022-09-15T05:00:43.622Z,13.99
2022-09-15T05:02:46.730Z,13.97
2022-09-15T05:04:51.634Z,13.99
2022-09-15T05:06:54.623Z,13.96
2022-09-15T05:08:59.286Z,13.98
2022-09-15T05:11:03.248Z,14.05
2022-09-15T05:13:06.129Z,14.08
2022-09-15T05:15:09.458Z,14.08
2022-09-15T05:17:12.360Z,14.09
2022-09-15T05:19:15.304Z,14.13
2022-09-15T05:21:21.772Z,14.19
2022-09-15T05:23:25.531Z,14.13
2022-09-15T05:25:28.812Z,14.15
2022-09-15T05:27:32.676Z,14.17
2022-09-15T05:29:35.549Z,14.25
2022-09-15T05:31:38.446Z,14.27
2022-09-15T05:33:41.489Z,14.32
2022-09-15T05:35:51.410Z,14.32
2022-09-15T05:37:55.651Z,14.38
2022-09-15T05:39:59.513Z,14.39
2022-09-15T05:42:07.020Z,14.47
2022-09-15T05:44:13.480Z,14.48
2022-09-15T05:46:17.339Z,14.46
2022-09-15T05:48:20.335Z,14.43
2022-09-15T05:50:23.281Z,14.46
2022-09-15T05:52:26.173Z,14.53
2022-09-15T05:54:30.871Z,14.53
2022-09-15T05:56:34.123Z,14.59
2022-09-15T05:58:37.021Z,14.62
2022-09-15T06:00:40.327Z,14.63
2022-09-15T06:02:43.330Z,14.63
2022-09-15T06:04:46.181Z,14.67
2022-09-15T06:06:49.178Z,14.56
2022-09-15T06:08:58.007Z,14.72
2022-09-15T06:11:05.152Z,14.79
2022-09-15T06:13:09.130Z,14.86
2022-09-15T06:15:13.016Z,14.92
2022-09-15T06:17:16.018Z,15.00
2022-09-15T06:19:19.430Z,15.05
2022-09-15T06:21:23.800Z,15.08
2022-09-15T06:23:26.678Z,15.15
2022-09-15T06:25:29.625Z,15.03
2022-09-15T06:27:34.052Z,15.02
2022-09-15T06:29:37.000Z,15.14
2022-09-15T06:31:40.517Z,15.17
2022-09-15T06:33:44.981Z,15.16
2022-09-15T06:35:47.930Z,15.19
2022-09-15T06:37:51.750Z,15.25
2022-09-15T06:39:54.695Z,15.25
2022-09-15T06:42:05.891Z,15.24
2022-09-15T06:44:12.570Z,15.26
2022-09-15T06:46:17.481Z,15.30
2022-09-15T06:48:24.910Z,15.22
2022-09-15T06:50:28.246Z,15.23
2022-09-15T06:52:31.151Z,15.29
2022-09-15T06:54:34.715Z,15.33
2022-09-15T06:56:38.401Z,15.35
2022-09-15T06:58:43.077Z,15.37
2022-09-15T07:00:47.469Z,15.33
2022-09-15T07:02:50.773Z,15.37
2022-09-15T07:04:53.735Z,15.45
2022-09-15T07:06:56.662Z,15.52
2022-09-15T07:09:00.529Z,15.41
2022-09-15T07:11:04.296Z,15.50
2022-09-15T07:13:07.314Z,15.54
2022-09-15T07:15:11.674Z,15.60
2022-09-15T07:17:15.962Z,15.63
2022-09-15T07:19:18.782Z,15.72
2022-09-15T07:21:22.184Z,15.74
2022-09-15T07:23:25.410Z,15.84
2022-09-15T07:25:28.297Z,15.75
2022-09-15T07:27:31.921Z,15.72
2022-09-15T07:29:37.730Z,15.81
2022-09-15T07:31:41.535Z,15.88
2022-09-15T07:33:45.910Z,15.77
2022-09-15T07:35:48.906Z,15.75
2022-09-15T07:37:52.050Z,15.96
2022-09-15T07:39:55.045Z,15.90
2022-09-15T07:41:57.949Z,16.02
2022-09-15T07:44:01.618Z,16.07
2022-09-15T07:46:05.274Z,16.11
2022-09-15T07:48:08.299Z,16.14
2022-09-15T07:50:14.324Z,16.14
2022-09-15T07:52:17.266Z,16.16
2022-09-15T07:54:22.857Z,16.14
2022-09-15T07:56:26.966Z,16.09
2022-09-15T07:58:29.886Z,15.98
2022-09-15T08:00:32.858Z,16.08
2022-09-15T08:02:35.825Z,16.25
2022-09-15T08:04:38.815Z,16.36
2022-09-15T08:06:43.061Z,16.31
2022-09-15T08:08:46.166Z,16.48
2022-09-15T08:10:49.050Z,16.60
2022-09-15T08:12:52.359Z,16.57
2022-09-15T08:14:55.288Z,16.56
2022-09-15T08:17:00.966Z,16.43
2022-09-15T08:19:03.904Z,16.60
2022-09-15T08:21:12.302Z,16.85
2022-09-15T08:23:16.589Z,16.92
2022-09-15T08:25:19.465Z,16.93
2022-09-15T08:27:22.662Z,17.02
2022-09-15T08:29:25.817Z,17.13
2022-09-15T08:31:28.906Z,17.20
2022-09-15T08:33:31.892Z,17.08
2022-09-15T08:35:36.838Z,17.14
2022-09-15T08:37:39.924Z,17.10
2022-09-15T08:39:46.675Z,17.15
2022-09-15T08:41:51.605Z,16.95
2022-09-15T08:43:59.295Z,17.11
2022-09-15T08:46:06.138Z,17.23
2022-09-15T08:48:11.080Z,17.34
2022-09-15T08:50:23.047Z,17.13
2022-09-15T08:52:31.884Z,16.92
2022-09-15T08:54:35.224Z,17.12
2022-09-15T08:56:40.041Z,17.26
2022-09-15T08:58:42.963Z,17.45
2022-09-15T09:00:47.285Z,17.62
2022-09-15T09:03:17.254Z,17.84
2022-09-15T09:05:32.818Z,18.01
2022-09-15T09:07:59.747Z,18.00
2022-09-15T09:10:08.096Z,17.62
2022-09-15T09:12:22.398Z,17.57
2022-09-15T09:14:34.478Z,17.78
2022-09-15T09:16:45.606Z,17.92
2022-09-15T09:19:17.815Z,18.27
2022-09-15T09:21:24.151Z,18.52
2022-09-15T09:23:29.821Z,18.52
2022-09-15T09:25:32.784Z,18.69
2022-09-15T09:27:38.921Z,18.77
2022-09-15T09:29:44.902Z,19.00
2022-09-15T09:31:50.250Z,19.06
2022-09-15T09:33:56.573Z,19.09
2022-09-15T09:36:03.247Z,19.03
2022-09-15T09:38:06.221Z,18.75
2022-09-15T09:40:14.262Z,19.01
2022-09-15T09:42:19.129Z,19.12
2022-09-15T09:44:31.727Z,18.68
2022-09-15T09:46:35.068Z,18.84
2022-09-15T09:48:38.004Z,18.98
2022-09-15T09:50:43.202Z,19.19
2022-09-15T09:52:46.494Z,19.37
2022-09-15T09:54:51.601Z,19.68
2022-09-15T09:56:56.870Z,19.76
2022-09-15T09:58:59.876Z,19.95
2022-09-15T10:01:15.527Z,20.26
2022-09-15T10:03:20.725Z,20.60
2022-09-15T10:05:23.969Z,20.27
2022-09-15T10:07:27.849Z,20.48
2022-09-15T10:09:33.372Z,20.39
2022-09-15T10:11:41.487Z,20.18
2022-09-15T10:13:52.143Z,20.21
2022-09-15T10:15:56.703Z,20.15
2022-09-15T10:18:01.703Z,20.14
2022-09-15T10:20:07.199Z,20.05
2022-09-15T10:22:10.296Z,19.98
2022-09-15T10:24:33.741Z,19.93
2022-09-15T10:26:36.662Z,19.65
2022-09-15T10:28:39.626Z,19.68
2022-09-15T10:31:00.531Z,19.60
2022-09-15T10:33:19.759Z,19.70
2022-09-15T10:35:22.763Z,19.59
2022-09-15T10:37:28.962Z,19.58
2022-09-15T10:39:40.017Z,19.53
2022-09-15T10:41:47.282Z,19.61
2022-09-15T10:44:05.532Z,19.51
2022-09-15T10:46:14.557Z,19.42
2022-09-15T10:48:38.335Z,19.18
2022-09-15T10:50:48.915Z,19.14
2022-09-15T10:53:02.959Z,19.03
2022-09-15T10:55:31.900Z,19.05
2022-09-15T10:57:55.014Z,18.87
2022-09-15T11:00:05.495Z,18.76
2022-09-15T11:02:34.464Z,18.60
2022-09-15T11:04:58.436Z,18.35
2022-09-15T11:07:05.008Z,18.24
2022-09-15T11:09:16.326Z,18.15
2022-09-15T11:11:26.827Z,17.92
2022-09-15T11:13:34.413Z,17.82
2022-09-15T11:15:52.548Z,17.66
2022-09-15T11:18:08.007Z,17.62
2022-09-15T11:20:23.873Z,17.49
2022-09-15T11:22:29.347Z,17.49
2022-09-15T11:24:39.056Z,17.19
2022-09-15T11:26:45.360Z,17.30
2022-09-15T11:28:53.745Z,17.39
2022-09-15T11:31:01.031Z,17.31
2022-09-15T11:33:06.688Z,16.93
2022-09-15T11:35:37.460Z,16.99
2022-09-15T11:37:42.511Z,17.13
2022-09-15T11:39:51.011Z,17.47
2022-09-15T11:41:56.648Z,17.22
2022-09-15T11:44:10.131Z,17.33
2022-09-15T11:46:19.900Z,17.57
2022-09-15T11:48:28.538Z,17.44
2022-09-15T11:50:36.511Z,17.69
2022-09-15T11:52:50.558Z,17.68
2022-09-15T11:55:00.941Z,17.72
2022-09-15T11:57:04.296Z,17.82
2022-09-15T11:59:16.639Z,17.94
2022-09-15T12:01:21.225Z,18.19
2022-09-15T12:03:28.930Z,18.23
2022-09-15T12:05:37.877Z,18.59
2022-09-15T12:07:46.721Z,18.63
2022-09-15T12:09:49.900Z,18.88
2022-09-15T12:11:54.173Z,19.07
2022-09-15T12:13:59.486Z,19.21
2022-09-15T12:16:04.069Z,18.89
2022-09-15T12:18:34.869Z,19.07
2022-09-15T12:20:44.446Z,18.93
2022-09-15T12:22:52.397Z,19.23
2022-09-15T12:25:01.212Z,19.40
2022-09-15T12:27:05.992Z,19.71
2022-09-15T12:29:41.898Z,19.28
2022-09-15T12:31:46.991Z,19.53
2022-09-15T12:33:55.950Z,19.57
2022-09-15T12:36:39.102Z,19.71
2022-09-15T12:38:49.017Z,19.87
2022-09-15T12:40:58.001Z,19.97
2022-09-15T12:43:01.929Z,19.94
2022-09-15T12:45:06.781Z,20.00
2022-09-15T12:47:20.030Z,20.09
2022-09-15T12:49:28.837Z,19.47
2022-09-15T12:51:33.530Z,19.73
2022-09-15T12:53:39.607Z,19.78
2022-09-15T12:55:50.146Z,19.94
2022-09-15T12:57:55.261Z,19.96
2022-09-15T13:00:29.880Z,19.99
2022-09-15T13:02:46.758Z,20.04
2022-09-15T13:04:54.375Z,19.89
2022-09-15T13:07:32.634Z,19.79
2022-09-15T13:09:44.813Z,19.83
2022-09-15T13:11:51.136Z,19.91
2022-09-15T13:13:56.339Z,19.46
2022-09-15T13:15:59.479Z,19.65
2022-09-15T13:18:05.212Z,19.83
2022-09-15T13:20:11.861Z,20.17
2022-09-15T13:22:20.263Z,19.93
2022-09-15T13:24:35.865Z,20.14
2022-09-15T13:26:39.760Z,20.27
2022-09-15T13:28:44.764Z,20.31
2022-09-15T13:30:58.557Z,20.34
2022-09-15T13:33:06.030Z,20.38
2022-09-15T13:35:48.404Z,20.37
2022-09-15T13:38:31.628Z,20.48
2022-09-15T13:40:50.000Z,20.58
2022-09-15T13:43:04.978Z,20.61
2022-09-15T13:45:27.800Z,20.46
2022-09-15T13:47:42.526Z,20.41
2022-09-15T13:49:53.028Z,20.20
2022-09-15T13:51:59.879Z,20.24
2022-09-15T13:54:04.263Z,20.12
2022-09-15T13:56:13.437Z,20.19
2022-09-15T14:00:48.298Z,20.01
2022-09-15T14:02:54.194Z,19.97
2022-09-15T14:04:59.423Z,19.99
2022-09-15T14:07:02.807Z,19.95
2022-09-15T14:09:09.165Z,19.97
2022-09-15T14:11:18.346Z,20.06
2022-09-15T14:13:23.218Z,19.94
2022-09-15T14:15:27.276Z,20.03
2022-09-15T14:17:32.009Z,20.00
2022-09-15T14:19:36.511Z,19.77
2022-09-15T14:21:49.053Z,19.92
2022-09-15T14:23:54.924Z,19.93
2022-09-15T14:26:00.364Z,19.98
2022-09-15T14:28:05.686Z,20.07
2022-09-15T14:30:17.387Z,19.86
2022-09-15T14:32:20.419Z,19.86
2022-09-15T14:34:25.491Z,19.44
2022-09-15T14:36:31.332Z,19.38
2022-09-15T14:38:36.298Z,19.41
2022-09-15T14:40:41.360Z,19.29
2022-09-15T14:42:44.680Z,18.96
2022-09-15T14:47:13.451Z,19.20
2022-09-15T14:49:16.689Z,19.00
2022-09-15T14:51:22.673Z,19.19
2022-09-15T14:53:26.569Z,19.18
2022-09-15T14:55:30.960Z,19.29
2022-09-15T14:57:35.198Z,19.26
2022-09-15T14:59:40.217Z,19.28
2022-09-15T15:01:49.358Z,19.06
2022-09-15T15:03:57.584Z,18.95
2022-09-15T15:06:25.425Z,19.09
2022-09-15T15:08:34.085Z,19.09
2022-09-15T15:10:37.849Z,19.09
2022-09-15T15:12:43.055Z,19.23
2022-09-15T15:14:46.207Z,19.25
2022-09-15T15:16:57.713Z,18.99
2022-09-15T15:19:00.857Z,19.15
2022-09-15T15:21:04.098Z,19.03
2022-09-15T15:23:16.601Z,19.03
2022-09-15T15:25:24.963Z,19.09
2022-09-15T15:27:43.280Z,19.15
2022-09-15T15:29:47.192Z,18.94
2022-09-15T15:31:50.187Z,19.02
2022-09-15T15:33:57.165Z,19.18
2022-09-15T15:36:06.302Z,18.87
2022-09-15T15:38:16.394Z,18.91
2022-09-15T15:40:23.148Z,18.99
2022-09-15T15:42:28.501Z,18.95
2022-09-15T15:44:33.743Z,18.85
2022-09-15T15:46:50.806Z,18.54
2022-09-15T15:48:56.089Z,18.71
2022-09-15T15:50:59.574Z,18.45
2022-09-15T15:53:02.806Z,18.24
2022-09-15T15:55:07.242Z,18.37
2022-09-15T15:57:22.563Z,18.27
2022-09-15T15:59:26.202Z,18.29
2022-09-15T16:01:30.019Z,18.22
2022-09-15T16:03:34.507Z,18.19
2022-09-15T16:05:39.254Z,18.25
2022-09-15T16:07:44.687Z,18.24
2022-09-15T16:09:47.981Z,18.19
2022-09-15T16:11:51.176Z,18.09
2022-09-15T16:13:54.381Z,17.97
2022-09-15T16:16:00.083Z,17.83
2022-09-15T16:18:04.157Z,17.79
2022-09-15T16:20:07.981Z,17.66
2022-09-15T16:22:17.379Z,17.59
2022-09-15T16:24:20.382Z,17.56
2022-09-15T16:26:24.975Z,17.44
2022-09-15T16:28:28.667Z,17.45
2022-09-15T16:30:32.029Z,17.46
2022-09-15T16:32:35.384Z,17.47
2022-09-15T16:34:38.377Z,17.41
2022-09-15T16:36:41.328Z,17.40
2022-09-15T16:38:46.270Z,17.18
2022-09-15T16:40:49.654Z,17.25
2022-09-15T16:42:52.592Z,16.98
2022-09-15T16:44:55.491Z,16.97
2022-09-15T16:46:58.361Z,16.89
2022-09-15T16:49:01.364Z,16.87
2022-09-15T16:53:27.615Z,16.93
2022-09-15T16:55:36.978Z,16.90
2022-09-15T16:57:39.887Z,16.78
2022-09-15T16:59:42.924Z,16.85
2022-09-15T17:01:46.151Z,16.84
2022-09-15T17:03:50.489Z,16.93
2022-09-15T17:05:54.517Z,16.96
2022-09-15T17:07:57.621Z,16.84
2022-09-15T17:10:01.417Z,16.87
2022-09-15T17:12:06.491Z,16.92
2022-09-15T17:14:11.300Z,16.90
2022-09-15T17:16:16.125Z,16.82
2022-09-15T17:18:19.138Z,16.88
2022-09-15T17:20:23.149Z,16.82
2022-09-15T17:22:26.068Z,16.65
2022-09-15T17:24:29.618Z,16.74
2022-09-15T17:26:32.873Z,16.69
2022-09-15T17:28:37.768Z,16.70
2022-09-15T17:30:40.662Z,16.63
2022-09-15T17:32:43.789Z,16.59
2022-09-15T17:34:46.915Z,16.52
2022-09-15T17:36:49.954Z,16.56
2022-09-15T17:38:53.014Z,16.55
2022-09-15T17:40:56.693Z,16.50
2022-09-15T17:43:00.622Z,16.49
2022-09-15T17:45:14.710Z,16.44
2022-09-15T17:47:17.740Z,16.26
2022-09-15T17:49:20.682Z,16.23
2022-09-15T17:51:25.117Z,16.08
2022-09-15T17:53:30.893Z,16.06
2022-09-15T17:55:34.561Z,16.20
2022-09-15T17:57:37.469Z,16.12
2022-09-15T17:59:40.828Z,16.11
2022-09-15T18:01:46.498Z,16.12
2022-09-15T18:03:50.084Z,15.97
2022-09-15T18:05:53.419Z,16.02
2022-09-15T18:07:57.806Z,15.84
2022-09-15T18:10:03.590Z,15.92
2022-09-15T18:12:06.514Z,15.94
2022-09-15T18:14:10.024Z,15.90
2022-09-15T18:16:16.228Z,15.88
2022-09-15T18:18:21.766Z,15.84
2022-09-15T18:20:26.418Z,15.81
2022-09-15T18:22:29.560Z,15.75
2022-09-15T18:24:32.638Z,15.66
2022-09-15T18:26:35.909Z,15.54
2022-09-15T18:28:39.084Z,15.66
2022-09-15T18:30:43.930Z,15.65
2022-09-15T18:32:47.255Z,15.65
2022-09-15T18:34:51.786Z,15.57
2022-09-15T18:36:54.855Z,15.54
2022-09-15T18:38:58.131Z,15.55
2022-09-15T18:41:01.540Z,15.43
2022-09-15T18:43:05.509Z,15.42
2022-09-15T18:45:10.496Z,15.47
2022-09-15T18:47:13.411Z,15.32
2022-09-15T18:49:16.784Z,15.30
2022-09-15T18:51:29.132Z,15.36
2022-09-15T18:53:37.956Z,15.33
2022-09-15T18:55:41.739Z,15.34
2022-09-15T18:57:45.134Z,15.39
2022-09-15T18:59:48.157Z,15.28
2022-09-15T19:01:51.156Z,15.35
2022-09-15T19:03:54.266Z,15.35
2022-09-15T19:05:57.347Z,15.33
2022-09-15T19:08:02.485Z,15.35
2022-09-15T19:10:06.384Z,15.36
2022-09-15T19:12:09.708Z,15.30
2022-09-15T19:14:12.757Z,15.24
2022-09-15T19:16:15.937Z,15.31
2022-09-15T19:18:19.031Z,15.29
2022-09-15T19:20:22.671Z,15.34
2022-09-15T19:22:25.608Z,15.32
2022-09-15T19:24:33.591Z,15.30
2022-09-15T19:26:37.359Z,15.26
2022-09-15T19:28:40.602Z,15.29
2022-09-15T19:30:44.013Z,15.30
2022-09-15T19:32:47.292Z,15.25
2022-09-15T19:34:50.538Z,15.23
2022-09-15T19:36:53.471Z,15.25
2022-09-15T19:38:56.877Z,15.15
2022-09-15T19:41:05.215Z,15.07
2022-09-15T19:43:08.132Z,15.15
2022-09-15T19:45:12.387Z,15.02
2022-09-15T19:47:15.383Z,14.93
2022-09-15T19:49:18.315Z,14.98
2022-09-15T19:51:21.557Z,14.99
2022-09-15T19:53:24.563Z,14.96
2022-09-15T19:55:30.812Z,15.05
2022-09-15T19:57:35.559Z,15.10
2022-09-15T19:59:38.525Z,15.05
2022-09-15T20:01:41.503Z,15.02
2022-09-15T20:03:44.479Z,14.98
2022-09-15T20:05:50.837Z,14.98
2022-09-15T20:07:53.715Z,15.01
2022-09-15T20:09:58.741Z,15.01
2022-09-15T20:12:03.220Z,14.94
2022-09-15T20:14:07.668Z,15.08
2022-09-15T20:16:19.101Z,15.07
2022-09-15T20:18:23.091Z,15.13
2022-09-15T20:20:26.262Z,14.98
2022-09-15T20:22:29.198Z,15.04
2022-09-15T20:24:32.180Z,15.07
2022-09-15T20:26:36.704Z,15.11
2022-09-15T20:28:39.979Z,15.10
2022-09-15T20:30:44.313Z,15.11
2022-09-15T20:32:47.385Z,15.14
2022-09-15T20:34:51.962Z,15.07
2022-09-15T20:36:56.725Z,15.08
2022-09-15T20:38:59.598Z,15.09
2022-09-15T20:41:03.513Z,15.10
2022-09-15T20:43:06.404Z,15.11
2022-09-15T20:45:10.398Z,15.11
2022-09-15T20:47:15.098Z,15.03
2022-09-15T20:49:18.215Z,15.05
2022-09-15T20:51:22.811Z,15.09
2022-09-15T20:53:26.255Z,15.10
2022-09-15T20:55:29.499Z,15.09
2022-09-15T20:57:32.407Z,15.06
2022-09-15T20:59:35.262Z,15.08
2022-09-15T21:01:39.652Z,15.08
2022-09-15T21:03:45.393Z,15.08
2022-09-15T21:05:48.328Z,15.04
2022-09-15T21:07:52.040Z,15.03
2022-09-15T21:09:55.224Z,15.06
2022-09-15T21:11:58.161Z,15.09
2022-09-15T21:14:01.640Z,15.07
2022-09-15T21:16:15.091Z,14.96
2022-09-15T21:18:18.362Z,15.06
2022-09-15T21:20:22.586Z,15.07
2022-09-15T21:22:25.833Z,14.96
2022-09-15T21:24:28.733Z,14.98
2022-09-15T21:26:33.314Z,15.00
2022-09-15T21:28:36.434Z,14.99
2022-09-15T21:30:39.836Z,15.00
2022-09-15T21:32:42.699Z,14.98
2022-09-15T21:34:46.519Z,14.99
2022-09-15T21:36:50.912Z,14.89
2022-09-15T21:38:54.962Z,14.91
2022-09-15T21:40:57.918Z,14.88
2022-09-15T21:43:01.363Z,14.91
2022-09-15T21:45:04.909Z,14.94
2022-09-15T21:47:08.086Z,14.94
2022-09-15T21:49:11.617Z,14.94
2022-09-15T21:51:23.466Z,14.94
2022-09-15T21:53:29.587Z,14.82
2022-09-15T21:55:32.483Z,14.79
2022-09-15T21:57:35.368Z,14.78
2022-09-15T21:59:39.214Z,14.78
2022-09-15T22:01:42.244Z,14.74
2022-09-15T22:03:45.356Z,14.76
2022-09-15T22:05:48.476Z,14.80
2022-09-15T22:07:51.394Z,14.77
2022-09-15T22:09:56.356Z,14.76
2022-09-15T22:11:59.315Z,14.78
2022-09-15T22:14:03.041Z,14.80
2022-09-15T22:16:16.534Z,14.74
2022-09-15T22:18:19.561Z,14.70
2022-09-15T22:20:22.514Z,14.72
2022-09-15T22:22:25.837Z,14.63
2022-09-15T22:24:28.901Z,14.67
2022-09-15T22:26:35.026Z,14.69
2022-09-15T22:28:38.181Z,14.60
2022-09-15T22:30:41.117Z,14.62
2022-09-15T22:32:44.083Z,14.65
2022-09-15T22:34:47.058Z,14.53
2022-09-15T22:36:49.974Z,14.56
2022-09-15T22:38:53.463Z,14.60
2022-09-15T22:40:56.812Z,14.64
2022-09-15T22:43:01.153Z,14.66
2022-09-15T22:45:05.058Z,14.68
2022-09-15T22:47:08.060Z,14.67
2022-09-15T22:49:11.083Z,14.64
2022-09-15T22:51:16.806Z,14.69
2022-09-15T22:53:19.793Z,14.64
2022-09-15T22:55:23.002Z,14.62
2022-09-15T22:57:25.876Z,14.63
2022-09-15T22:59:30.919Z,14.56
2022-09-15T23:01:33.952Z,14.59
2022-09-15T23:03:37.475Z,14.60
2022-09-15T23:05:40.420Z,14.60
2022-09-15T23:07:43.410Z,14.58
2022-09-15T23:09:46.342Z,14.58
2022-09-15T23:11:49.525Z,14.59
2022-09-15T23:13:53.473Z,14.62
2022-09-15T23:15:57.820Z,14.58
2022-09-15T23:18:00.858Z,14.57
2022-09-15T23:20:05.552Z,14.52
2022-09-15T23:22:08.489Z,14.43
2022-09-15T23:24:12.471Z,14.39
2022-09-15T23:26:17.255Z,14.46
2022-09-15T23:28:20.382Z,14.40
2022-09-15T23:30:23.519Z,14.39
2022-09-15T23:32:27.848Z,14.44
2022-09-15T23:34:30.744Z,14.43
2022-09-15T23:36:33.601Z,14.36
2022-09-15T23:38:44.163Z,14.31
2022-09-15T23:40:48.409Z,14.30
2022-09-15T23:42:51.634Z,14.27
2022-09-15T23:44:54.532Z,14.24
2022-09-15T23:50:33.862Z,14.17
2022-09-15T23:52:36.825Z,14.05
2022-09-15T23:58:14.337Z,14.06
